Time;durP1;ratioP1;P1;durP2;ratioP2;P2;SDS_P1;SDS_P2;PMS_P1;PMS_P2;Temp;Humidity;BMP_temperature;BMP_pressure;BME280_temperature;BME280_humidity;BME280_pressure;Samples;Min_cycle;Max_cycle;Signal;HPM_P1;HPM_P2
2023/06/15 00:00:55;;;;;;;2.80;1.60;;;20.30;66.60;;;;;;4986123;28;20033;-58
2023/06/15 00:03:21;;;;;;;2.78;1.42;;;20.40;66.80;;;;;;4975150;28;20034;-59
2023/06/15 00:05:46;;;;;;;2.80;1.50;;;20.30;66.30;;;;;;4986012;28;20044;-60
2023/06/15 00:08:12;;;;;;;4.93;1.60;;;20.40;66.60;;;;;;4992369;28;20034;-57
2023/06/15 00:10:38;;;;;;;2.53;1.40;;;20.30;66.30;;;;;;4991392;28;20477;-59
2023/06/15 00:13:04;;;;;;;2.38;1.50;;;20.40;66.30;;;;;;4992003;28;20409;-58
2023/06/15 00:15:30;;;;;;;4.05;1.13;;;20.40;66.10;;;;;;4974119;28;20037;-59
2023/06/15 00:17:56;;;;;;;2.47;1.20;;;20.30;66.50;;;;;;4992507;28;20061;-58
2023/06/15 00:20:28;;;;;;;2.72;1.27;;;20.30;66.70;;;;;;4985916;28;20062;-59
2023/06/15 00:22:55;;;;;;;2.15;1.40;;;20.20;67.40;;;;;;4992131;28;20085;-57
2023/06/15 00:25:22;;;;;;;5.07;1.65;;;20.30;66.80;;;;;;4974203;28;20069;-57
2023/06/15 00:27:48;;;;;;;2.45;1.63;;;20.30;67.00;;;;;;4974782;28;20026;-57
2023/06/15 00:30:14;;;;;;;1.67;1.25;;;20.00;66.70;;;;;;4988936;28;20034;-57
2023/06/15 00:32:40;;;;;;;3.88;1.63;;;20.10;67.00;;;;;;4991871;28;20034;-55
2023/06/15 00:35:06;;;;;;;1.25;0.80;;;20.10;67.00;;;;;;4989283;28;20038;-55
2023/06/15 00:37:32;;;;;;;1.85;1.10;;;20.10;67.30;;;;;;4974797;28;20089;-57
2023/06/15 00:39:58;;;;;;;2.80;1.23;;;20.10;67.70;;;;;;4974216;28;20069;-57
2023/06/15 00:42:24;;;;;;;2.17;1.08;;;20.20;67.80;;;;;;4974458;28;20068;-57
2023/06/15 00:44:50;;;;;;;2.10;0.90;;;20.30;67.30;;;;;;4989352;28;20022;-58
2023/06/15 00:47:20;;;;;;;2.20;1.20;;;20.40;66.50;;;;;;4992052;28;20074;-58
2023/06/15 00:49:47;;;;;;;3.65;1.35;;;20.40;67.30;;;;;;4974456;28;20109;-55
2023/06/15 00:52:16;;;;;;;2.10;1.17;;;20.30;66.70;;;;;;4991613;28;20434;-56
2023/06/15 00:54:43;;;;;;;4.13;1.52;;;20.30;67.20;;;;;;4974001;28;20038;-58
2023/06/15 00:57:12;;;;;;;3.97;1.30;;;20.20;67.00;;;;;;4974661;28;20030;-57
2023/06/15 00:59:38;;;;;;;3.13;1.40;;;20.10;67.40;;;;;;4973908;28;20030;-56
2023/06/15 01:02:04;;;;;;;3.35;1.50;;;20.10;67.40;;;;;;4991219;28;20030;-56
2023/06/15 01:04:30;;;;;;;1.83;1.20;;;20.10;67.90;;;;;;4988194;28;20037;-58
2023/06/15 01:07:02;;;;;;;2.13;1.38;;;20.20;68.60;;;;;;4986133;28;20026;-58
2023/06/15 01:09:33;;;;;;;4.53;1.83;;;20.20;67.90;;;;;;4973845;28;20026;-56
2023/06/15 01:12:01;;;;;;;2.58;1.30;;;20.20;67.70;;;;;;4970343;28;20035;-58
2023/06/15 01:14:29;;;;;;;2.40;0.98;;;20.20;68.20;;;;;;4959287;28;20033;-58
2023/06/15 01:17:08;;;;;;;6.85;1.83;;;20.20;67.90;;;;;;4991335;28;20026;-59
2023/06/15 01:19:54;;;;;;;2.75;1.45;;;20.20;68.50;;;;;;4973309;28;20038;-53
2023/06/15 01:22:49;;;;;;;1.48;1.17;;;20.10;68.60;;;;;;4991236;28;20037;-57
2023/06/15 01:25:33;;;;;;;2.05;1.20;;;20.20;68.00;;;;;;4975502;28;20054;-54
2023/06/15 01:28:02;;;;;;;3.83;1.30;;;20.20;68.00;;;;;;4991221;28;20035;-56
2023/06/15 01:30:37;;;;;;;1.90;0.93;;;20.20;67.90;;;;;;4973448;28;20029;-56
2023/06/15 01:33:02;;;;;;;3.40;1.23;;;20.20;68.40;;;;;;4991079;28;20426;-56
2023/06/15 01:35:28;;;;;;;1.60;1.00;;;20.20;68.40;;;;;;4988442;28;20038;-57
2023/06/15 01:37:54;;;;;;;3.08;1.50;;;20.20;68.40;;;;;;4991175;28;20048;-59
2023/06/15 01:40:20;;;;;;;2.20;1.40;;;20.10;68.30;;;;;;4988384;28;20042;-58
2023/06/15 01:42:47;;;;;;;3.85;1.58;;;20.00;68.40;;;;;;4970468;28;20430;-58
2023/06/15 01:45:15;;;;;;;2.35;1.40;;;19.90;68.90;;;;;;4964836;28;20074;-56
2023/06/15 01:47:42;;;;;;;2.58;1.60;;;19.90;69.10;;;;;;4974079;28;20026;-58
2023/06/15 01:50:10;;;;;;;2.78;1.40;;;19.80;69.40;;;;;;4973137;28;20058;-55
2023/06/15 01:52:36;;;;;;;2.97;1.25;;;19.80;70.00;;;;;;4990720;28;20026;-57
2023/06/15 01:55:03;;;;;;;2.83;1.38;;;19.50;70.50;;;;;;4972814;28;20157;-56
2023/06/15 01:57:33;;;;;;;2.30;1.60;;;19.40;71.20;;;;;;4973775;28;20049;-58
2023/06/15 01:59:59;;;;;;;1.25;0.80;;;19.20;71.90;;;;;;4973478;28;20042;-58
2023/06/15 02:02:25;;;;;;;2.33;1.23;;;19.10;72.90;;;;;;4973322;28;20397;-58
2023/06/15 02:04:50;;;;;;;3.97;1.60;;;19.10;73.80;;;;;;4988198;28;20030;-57
2023/06/15 02:07:16;;;;;;;1.98;1.38;;;19.00;74.00;;;;;;4990863;28;20066;-56
2023/06/15 02:09:42;;;;;;;2.47;1.60;;;18.80;74.50;;;;;;4988394;28;20026;-54
2023/06/15 02:12:09;;;;;;;3.20;1.73;;;18.70;75.00;;;;;;4990515;28;20124;-56
2023/06/15 02:14:34;;;;;;;3.08;1.40;;;18.60;75.50;;;;;;4989256;28;20560;-55
2023/06/15 02:17:00;;;;;;;1.95;1.17;;;18.50;75.90;;;;;;4994705;28;20034;-56
2023/06/15 02:19:28;;;;;;;2.72;1.45;;;18.40;76.30;;;;;;4991421;28;20056;-53
2023/06/15 02:21:53;;;;;;;3.17;1.50;;;18.40;76.90;;;;;;4994244;28;20520;-56
2023/06/15 02:24:19;;;;;;;2.38;1.45;;;18.30;77.10;;;;;;4993320;28;20042;-57
2023/06/15 02:26:46;;;;;;;2.17;1.27;;;18.30;77.80;;;;;;4994597;28;20034;-55
2023/06/15 02:29:12;;;;;;;3.83;1.52;;;18.20;78.90;;;;;;4974340;28;20041;-57
2023/06/15 02:31:37;;;;;;;5.18;1.70;;;18.20;79.30;;;;;;4976703;28;20030;-56
2023/06/15 02:34:04;;;;;;;1.75;1.20;;;18.10;79.80;;;;;;4992749;28;20049;-56
2023/06/15 02:36:30;;;;;;;2.70;1.27;;;18.00;80.80;;;;;;4993282;28;20035;-57
2023/06/15 02:39:00;;;;;;;4.75;2.00;;;17.90;81.50;;;;;;4993650;28;20394;-52
2023/06/15 02:41:25;;;;;;;3.45;1.60;;;17.90;82.30;;;;;;4994262;28;20497;-56
2023/06/15 02:43:52;;;;;;;3.03;1.63;;;17.90;83.00;;;;;;4993680;28;20035;-57
2023/06/15 02:46:18;;;;;;;2.70;1.45;;;18.00;83.50;;;;;;4993762;28;20540;-54
2023/06/15 02:48:44;;;;;;;2.65;1.52;;;17.80;84.70;;;;;;4977044;28;20046;-57
2023/06/15 02:51:10;;;;;;;3.20;1.60;;;17.70;85.60;;;;;;4991211;28;20060;-57
2023/06/15 02:53:36;;;;;;;2.60;1.38;;;17.60;86.40;;;;;;4974508;28;20479;-58
2023/06/15 02:56:03;;;;;;;3.30;1.70;;;17.60;87.10;;;;;;4989756;28;20038;-56
2023/06/15 02:58:32;;;;;;;3.65;1.92;;;17.70;87.10;;;;;;4994065;28;20038;-56
2023/06/15 03:01:00;;;;;;;4.47;1.52;;;17.70;87.40;;;;;;4991349;28;20044;-53
2023/06/15 03:03:27;;;;;;;7.22;2.03;;;17.50;88.70;;;;;;4971709;28;20470;-56
2023/06/15 03:05:54;;;;;;;3.55;1.20;;;17.40;89.70;;;;;;4990770;28;20078;-54
2023/06/15 03:08:23;;;;;;;2.97;1.50;;;17.40;90.10;;;;;;4993477;28;20026;-55
2023/06/15 03:10:52;;;;;;;3.00;1.52;;;17.40;90.00;;;;;;4975974;28;20105;-56
2023/06/15 03:13:18;;;;;;;2.63;1.63;;;17.40;90.20;;;;;;4993174;28;20108;-54
2023/06/15 03:15:43;;;;;;;3.08;1.85;;;17.30;90.60;;;;;;4992506;28;20514;-54
2023/06/15 03:18:11;;;;;;;3.90;1.92;;;17.20;91.10;;;;;;4940625;23;20074;-55
2023/06/15 03:20:37;;;;;;;2.78;1.50;;;17.20;91.10;;;;;;4929427;29;20114;-54
2023/06/15 03:23:03;;;;;;;3.00;1.40;;;17.20;91.30;;;;;;4934200;29;20512;-51
2023/06/15 03:25:31;;;;;;;2.88;1.67;;;17.30;91.20;;;;;;4921759;28;20555;-54
2023/06/15 03:28:01;;;;;;;2.78;1.70;;;17.40;91.10;;;;;;4947969;28;20039;-53
2023/06/15 03:30:27;;;;;;;2.60;1.70;;;17.40;91.00;;;;;;4942488;29;20034;-55
2023/06/15 03:32:53;;;;;;;2.88;1.30;;;17.40;91.00;;;;;;4934582;29;20287;-54
2023/06/15 03:35:20;;;;;;;3.95;1.70;;;17.40;91.20;;;;;;4944111;29;20487;-54
2023/06/15 03:37:47;;;;;;;3.53;1.52;;;17.40;91.30;;;;;;4940504;28;20036;-52
2023/06/15 03:40:13;;;;;;;3.85;1.88;;;17.30;91.50;;;;;;4941122;29;20059;-55
2023/06/15 03:42:39;;;;;;;2.42;1.63;;;17.20;91.80;;;;;;4936517;29;20023;-55
2023/06/15 03:45:06;;;;;;;3.90;1.90;;;17.20;92.20;;;;;;4937698;28;20122;-53
2023/06/15 03:47:32;;;;;;;3.70;1.73;;;17.10;92.40;;;;;;4934597;29;20530;-53
2023/06/15 03:49:58;;;;;;;8.95;1.48;;;17.10;92.80;;;;;;4955790;28;20040;-49
2023/06/15 03:52:26;;;;;;;3.65;2.13;;;17.00;93.00;;;;;;4943653;28;20031;-54
2023/06/15 03:54:51;;;;;;;2.83;1.48;;;17.00;93.10;;;;;;4929774;29;20391;-53
2023/06/15 03:57:17;;;;;;;2.78;1.50;;;17.10;93.20;;;;;;4931925;29;20044;-54
2023/06/15 03:59:43;;;;;;;2.50;1.58;;;17.10;93.00;;;;;;4934965;28;20178;-54
2023/06/15 04:02:09;;;;;;;2.65;1.65;;;17.20;93.00;;;;;;4930660;29;20115;-54
2023/06/15 04:04:35;;;;;;;5.15;1.52;;;17.20;92.90;;;;;;4934458;29;20186;-52
2023/06/15 04:07:00;;;;;;;1.83;1.17;;;17.10;93.10;;;;;;4948212;28;20547;-52
2023/06/15 04:09:27;;;;;;;2.22;1.45;;;17.10;93.40;;;;;;4944663;29;20036;-53
2023/06/15 04:11:53;;;;;;;5.35;1.40;;;17.40;92.80;;;;;;4926272;28;20078;-54
2023/06/15 04:14:19;;;;;;;7.60;2.00;;;17.10;93.20;;;;;;4942940;29;20047;-51
2023/06/15 04:16:45;;;;;;;2.10;1.38;;;17.30;93.30;;;;;;4915850;29;20118;-54
2023/06/15 04:19:11;;;;;;;2.88;1.40;;;17.40;92.90;;;;;;4934165;29;20105;-55
2023/06/15 04:21:37;;;;;;;4.07;1.65;;;17.20;93.20;;;;;;4946879;29;20039;-51
2023/06/15 04:24:03;;;;;;;3.20;1.55;;;17.10;93.40;;;;;;4939409;28;20043;-55
2023/06/15 04:26:29;;;;;;;2.05;1.42;;;17.30;93.30;;;;;;4936612;28;20051;-50
2023/06/15 04:28:57;;;;;;;3.70;1.63;;;17.60;92.60;;;;;;4938243;29;20028;-54
2023/06/15 04:31:24;;;;;;;2.92;1.50;;;17.80;92.20;;;;;;4936608;29;20027;-48
2023/06/15 04:33:58;;;;;;;3.22;1.73;;;17.90;91.80;;;;;;4943628;28;20066;-49
2023/06/15 04:36:24;;;;;;;1.95;1.38;;;18.10;91.40;;;;;;4950371;28;20487;-52
2023/06/15 04:38:50;;;;;;;4.40;2.47;;;18.20;91.20;;;;;;4943604;28;20031;-48
2023/06/15 04:41:22;;;;;;;2.90;1.75;;;18.20;91.30;;;;;;4948789;28;20514;-52
2023/06/15 04:43:48;;;;;;;4.72;1.40;;;18.20;91.30;;;;;;4944093;29;20030;-52
2023/06/15 04:46:17;;;;;;;3.20;1.63;;;18.20;90.90;;;;;;4950089;28;20039;-55
2023/06/15 04:48:44;;;;;;;4.13;1.30;;;17.80;91.60;;;;;;4945064;29;20059;-53
2023/06/15 04:51:11;;;;;;;4.78;1.88;;;18.00;91.70;;;;;;4949114;28;20039;-53
2023/06/15 04:53:37;;;;;;;2.55;1.48;;;17.70;92.20;;;;;;4937544;29;20044;-55
2023/06/15 04:56:03;;;;;;;2.80;2.10;;;17.80;92.20;;;;;;4950905;28;20035;-52
2023/06/15 04:58:29;;;;;;;3.15;1.70;;;17.80;92.60;;;;;;4944982;28;20055;-55
2023/06/15 05:00:55;;;;;;;4.07;1.48;;;18.00;91.90;;;;;;4948489;29;20380;-54
2023/06/15 05:03:21;;;;;;;2.33;1.27;;;17.70;92.10;;;;;;4930470;29;20122;-54
2023/06/15 05:05:46;;;;;;;4.00;2.35;;;17.80;92.40;;;;;;4928677;29;20035;-53
2023/06/15 05:08:13;;;;;;;2.03;1.30;;;18.00;92.00;;;;;;4928639;29;20031;-50
2023/06/15 05:10:39;;;;;;;3.17;1.75;;;18.20;91.70;;;;;;4943774;29;20050;-55
2023/06/15 05:13:05;;;;;;;2.42;1.45;;;18.10;91.70;;;;;;4940639;29;20035;-53
2023/06/15 05:15:31;;;;;;;3.13;1.70;;;18.10;91.80;;;;;;4938181;29;20518;-50
2023/06/15 05:17:56;;;;;;;3.47;2.13;;;17.80;92.50;;;;;;4948355;28;20439;-53
2023/06/15 05:20:22;;;;;;;5.60;1.40;;;18.30;93.40;;;;;;4937269;29;20043;-51
2023/06/15 05:22:48;;;;;;;7.50;1.77;;;18.60;91.50;;;;;;4939706;28;20031;-53
2023/06/15 05:25:13;;;;;;;2.33;1.42;;;18.90;90.90;;;;;;4932319;29;20036;-50
2023/06/15 05:27:39;;;;;;;2.45;1.50;;;19.00;90.60;;;;;;4944613;29;20059;-55
2023/06/15 05:30:11;;;;;;;7.18;2.35;;;19.10;89.80;;;;;;4935109;28;20357;-53
2023/06/15 05:32:38;;;;;;;1.95;1.20;;;19.10;90.10;;;;;;4937129;29;20031;-53
2023/06/15 05:35:08;;;;;;;2.42;1.58;;;18.90;90.20;;;;;;4940878;29;20039;-49
2023/06/15 05:37:35;;;;;;;3.10;1.75;;;18.50;90.80;;;;;;4943922;28;20118;-51
2023/06/15 05:40:04;;;;;;;10.48;2.70;;;18.70;91.10;;;;;;4941789;29;20687;-53
2023/06/15 05:42:29;;;;;;;3.40;1.70;;;18.70;91.00;;;;;;4939148;29;20592;-50
2023/06/15 05:44:56;;;;;;;2.55;1.30;;;18.80;90.70;;;;;;4935598;29;20102;-53
2023/06/15 05:47:22;;;;;;;1.90;1.27;;;18.70;90.60;;;;;;4949998;28;20019;-54
2023/06/15 05:49:48;;;;;;;4.85;1.77;;;18.70;91.00;;;;;;4941896;28;20111;-51
2023/06/15 05:52:14;;;;;;;3.15;2.28;;;18.90;90.90;;;;;;4953007;29;20027;-51
2023/06/15 05:54:44;;;;;;;6.97;1.63;;;19.00;90.60;;;;;;4946474;28;20066;-56
2023/06/15 05:57:12;;;;;;;2.50;1.45;;;19.20;90.10;;;;;;4952801;28;20035;-53
2023/06/15 05:59:38;;;;;;;3.80;1.40;;;19.40;90.00;;;;;;4943494;28;20087;-52
2023/06/15 06:02:04;;;;;;;2.72;1.38;;;19.60;89.40;;;;;;4946326;28;20043;-53
2023/06/15 06:04:30;;;;;;;6.25;1.70;;;19.50;89.10;;;;;;4945239;28;20051;-50
2023/06/15 06:06:56;;;;;;;4.57;1.65;;;19.30;89.50;;;;;;4947919;28;20023;-53
2023/06/15 06:09:22;;;;;;;1.85;1.10;;;19.40;89.10;;;;;;4950595;28;20087;-53
2023/06/15 06:11:48;;;;;;;4.95;1.65;;;19.60;89.00;;;;;;4955649;28;20082;-50
2023/06/15 06:14:15;;;;;;;3.08;1.65;;;19.40;89.50;;;;;;4939869;28;20399;-51
2023/06/15 06:16:42;;;;;;;3.03;1.50;;;19.50;89.00;;;;;;4939742;28;20032;-55
2023/06/15 06:19:08;;;;;;;3.65;1.55;;;19.80;87.50;;;;;;4944177;29;20031;-53
2023/06/15 06:21:33;;;;;;;3.55;1.60;;;19.90;87.30;;;;;;4942626;29;20027;-52
2023/06/15 06:23:59;;;;;;;2.92;1.70;;;19.70;88.00;;;;;;4940828;29;20034;-54
2023/06/15 06:26:25;;;;;;;3.17;1.92;;;20.00;87.40;;;;;;4943953;28;20095;-54
2023/06/15 06:29:00;;;;;;;2.05;1.42;;;20.10;87.20;;;;;;4954384;29;20028;-54
2023/06/15 06:31:26;;;;;;;1.90;1.13;;;20.00;87.60;;;;;;4950087;28;20075;-53
2023/06/15 06:33:52;;;;;;;3.67;1.65;;;20.00;87.10;;;;;;4949333;29;20494;-50
2023/06/15 06:36:17;;;;;;;2.85;1.35;;;19.90;87.70;;;;;;4951505;28;20031;-51
2023/06/15 06:38:43;;;;;;;3.33;1.70;;;19.80;87.80;;;;;;4948807;29;20038;-45
2023/06/15 06:41:10;;;;;;;1.80;1.40;;;19.90;88.10;;;;;;4950713;28;20050;-52
2023/06/15 06:43:36;;;;;;;2.85;1.55;;;20.10;87.90;;;;;;4947023;28;20155;-51
2023/06/15 06:46:01;;;;;;;4.05;1.75;;;20.20;87.50;;;;;;4952255;28;20497;-53
2023/06/15 06:48:27;;;;;;;3.55;1.48;;;20.40;87.10;;;;;;4947265;28;20035;-51
2023/06/15 06:50:53;;;;;;;4.13;1.90;;;20.10;87.40;;;;;;4950589;29;20364;-51
2023/06/15 06:53:19;;;;;;;5.65;2.40;;;20.10;87.70;;;;;;4941319;29;20484;-50
2023/06/15 06:55:45;;;;;;;5.68;3.05;;;20.30;87.30;;;;;;4940090;29;20031;-48
2023/06/15 06:58:11;;;;;;;2.33;1.52;;;20.50;86.80;;;;;;4947312;28;20035;-53
2023/06/15 07:00:37;;;;;;;3.92;1.75;;;20.40;87.00;;;;;;4951596;28;20452;-50
2023/06/15 07:03:03;;;;;;;2.40;1.60;;;20.10;88.00;;;;;;4961533;28;20031;-51
2023/06/15 07:05:28;;;;;;;1.60;1.25;;;20.40;86.80;;;;;;4952428;28;20031;-52
2023/06/15 07:07:54;;;;;;;4.57;2.08;;;20.50;87.10;;;;;;4946660;29;20028;-48
2023/06/15 07:10:20;;;;;;;3.00;1.73;;;20.40;86.50;;;;;;4934767;29;20070;-50
2023/06/15 07:12:46;;;;;;;2.30;1.35;;;20.60;85.40;;;;;;4943909;28;20605;-52
2023/06/15 07:15:13;;;;;;;5.28;1.60;;;20.70;84.40;;;;;;4935067;29;20095;-52
2023/06/15 07:17:39;;;;;;;3.58;1.88;;;20.90;84.60;;;;;;4941429;28;20039;-49
2023/06/15 07:20:06;;;;;;;3.08;1.55;;;20.90;84.00;;;;;;4935122;29;20403;-53
2023/06/15 07:22:31;;;;;;;4.28;1.85;;;20.80;83.70;;;;;;4933641;29;20731;-50
2023/06/15 07:24:57;;;;;;;2.83;1.48;;;20.80;83.70;;;;;;4931494;29;20036;-51
2023/06/15 07:27:23;;;;;;;4.90;2.00;;;20.90;84.10;;;;;;4946474;29;20035;-51
2023/06/15 07:29:48;;;;;;;6.38;1.65;;;20.80;83.80;;;;;;4942813;29;20031;-52
2023/06/15 07:32:14;;;;;;;3.83;1.90;;;20.90;83.70;;;;;;4930708;28;20472;-52
2023/06/15 07:34:40;;;;;;;5.03;1.80;;;21.10;83.20;;;;;;4938667;29;20118;-53
2023/06/15 07:37:06;;;;;;;2.80;1.88;;;21.30;82.80;;;;;;4938210;29;20039;-55
2023/06/15 07:39:33;;;;;;;2.90;2.00;;;21.40;82.70;;;;;;4928284;29;20031;-55
2023/06/15 07:42:00;;;;;;;2.75;1.70;;;21.40;80.10;;;;;;4928582;29;20051;-54
2023/06/15 07:44:26;;;;;;;5.13;1.85;;;21.40;79.50;;;;;;4927778;29;20083;-55
2023/06/15 07:46:52;;;;;;;3.97;1.80;;;21.30;80.50;;;;;;4946160;29;20499;-56
2023/06/15 07:49:17;;;;;;;4.05;1.88;;;21.20;80.30;;;;;;4947356;28;20043;-56
2023/06/15 07:51:45;;;;;;;2.90;1.65;;;21.30;80.40;;;;;;4939713;28;20690;-56
2023/06/15 07:54:11;;;;;;;7.45;1.90;;;21.50;80.70;;;;;;4929867;29;20024;-56
2023/06/15 07:56:37;;;;;;;2.47;1.42;;;21.70;80.60;;;;;;4934070;29;20027;-59
2023/06/15 07:59:03;;;;;;;4.25;1.73;;;21.90;79.80;;;;;;4949335;28;20105;-48
2023/06/15 08:01:28;;;;;;;2.35;1.60;;;21.90;79.50;;;;;;4943980;29;20036;-48
2023/06/15 08:03:54;;;;;;;5.13;1.85;;;22.00;79.60;;;;;;4951822;29;20031;-47
2023/06/15 08:06:20;;;;;;;3.25;2.13;;;21.80;79.40;;;;;;4943722;29;20417;-54
2023/06/15 08:08:46;;;;;;;2.78;1.73;;;21.90;78.70;;;;;;4953318;28;20177;-54
2023/06/15 08:11:12;;;;;;;4.85;2.42;;;21.90;78.60;;;;;;4947694;29;20152;-54
2023/06/15 08:13:38;;;;;;;4.07;1.85;;;22.00;78.80;;;;;;4930142;29;20038;-65
2023/06/15 08:16:06;;;;;;;2.50;1.58;;;22.30;78.50;;;;;;4939510;29;20039;-65
2023/06/15 08:18:33;;;;;;;8.70;1.90;;;22.40;77.60;;;;;;4950654;29;20043;-65
2023/06/15 08:20:58;;;;;;;3.00;1.92;;;22.50;76.90;;;;;;4936508;29;20048;-64
2023/06/15 08:23:24;;;;;;;3.92;1.90;;;22.50;76.70;;;;;;4942908;29;20078;-66
2023/06/15 08:25:52;;;;;;;3.03;1.60;;;22.60;76.00;;;;;;4935754;29;20118;-64
2023/06/15 08:28:19;;;;;;;3.30;1.60;;;22.60;75.00;;;;;;4949678;28;20066;-65
2023/06/15 08:30:45;;;;;;;3.88;2.10;;;22.50;74.50;;;;;;4940381;29;20031;-64
2023/06/15 08:33:11;;;;;;;3.10;2.10;;;22.50;74.90;;;;;;4935209;29;20036;-63
2023/06/15 08:35:36;;;;;;;2.97;1.52;;;22.60;75.10;;;;;;4939572;29;20544;-64
2023/06/15 08:38:02;;;;;;;3.15;1.50;;;22.50;75.10;;;;;;4946557;29;20039;-64
2023/06/15 08:40:28;;;;;;;3.10;1.40;;;22.70;75.80;;;;;;4944729;29;20062;-64
2023/06/15 08:42:56;;;;;;;3.58;1.77;;;22.90;74.50;;;;;;4943556;29;20113;-64
2023/06/15 08:45:26;;;;;;;2.95;1.83;;;23.00;72.60;;;;;;4944442;29;20519;-64
2023/06/15 08:47:55;;;;;;;3.30;1.80;;;23.10;72.90;;;;;;4945620;29;20058;-64
2023/06/15 08:50:20;;;;;;;4.72;1.92;;;23.20;72.30;;;;;;4946817;29;20513;-65
2023/06/15 08:52:48;;;;;;;3.08;1.75;;;23.30;72.10;;;;;;4945388;29;20043;-64
2023/06/15 08:55:16;;;;;;;3.30;1.58;;;23.50;71.60;;;;;;4939070;29;20169;-64
2023/06/15 08:57:41;;;;;;;6.93;1.50;;;23.70;69.40;;;;;;4945248;29;20054;-65
2023/06/15 09:00:09;;;;;;;2.85;1.58;;;23.80;68.70;;;;;;4945517;29;20071;-65
2023/06/15 09:02:41;;;;;;;4.40;2.00;;;23.80;68.10;;;;;;4943357;28;20039;-63
2023/06/15 09:05:08;;;;;;;3.47;1.42;;;23.80;68.00;;;;;;4947386;28;20491;-63
2023/06/15 09:07:34;;;;;;;2.88;1.52;;;23.90;68.40;;;;;;4943339;29;20035;-64
2023/06/15 09:10:18;;;;;;;2.75;1.55;;;23.90;68.50;;;;;;4945416;28;20090;-63
2023/06/15 09:12:46;;;;;;;4.10;1.50;;;24.10;67.90;;;;;;4939298;28;20042;-64
2023/06/15 09:15:24;;;;;;;5.03;1.90;;;24.20;67.70;;;;;;4939603;29;20047;-64
2023/06/15 09:17:54;;;;;;;4.65;1.70;;;24.10;68.60;;;;;;4964728;23;20047;-65
2023/06/15 09:20:26;;;;;;;2.47;1.55;;;24.10;69.20;;;;;;4950732;28;20665;-66
2023/06/15 09:22:56;;;;;;;2.67;1.58;;;24.30;68.70;;;;;;4950100;28;20035;-66
2023/06/15 09:25:22;;;;;;;2.88;1.70;;;24.50;68.30;;;;;;4945605;28;20496;-67
2023/06/15 09:28:00;;;;;;;5.88;2.00;;;24.60;68.10;;;;;;4945053;29;20130;-71
2023/06/15 09:30:34;;;;;;;2.38;1.30;;;24.80;68.20;;;;;;4932108;29;20035;-67
2023/06/15 09:33:20;;;;;;;3.47;1.30;;;24.80;66.80;;;;;;4949041;28;20407;-66
2023/06/15 09:35:59;;;;;;;3.20;1.60;;;24.90;66.70;;;;;;4944963;29;20129;-66
2023/06/15 09:38:31;;;;;;;3.30;1.60;;;25.10;66.10;;;;;;4930721;29;20055;-67
2023/06/15 09:41:01;;;;;;;2.83;1.20;;;24.60;66.30;;;;;;4954162;28;20098;-67
2023/06/15 09:43:34;;;;;;;3.35;1.40;;;24.80;66.40;;;;;;4951783;29;20038;-65
2023/06/15 09:46:20;;;;;;;2.85;1.70;;;24.90;66.70;;;;;;4951829;28;20067;-65
2023/06/15 09:48:49;;;;;;;4.78;1.90;;;25.10;66.60;;;;;;4947776;28;20027;-65
2023/06/15 09:51:16;;;;;;;5.40;1.40;;;25.20;65.80;;;;;;4951206;28;20035;-65
2023/06/15 09:53:43;;;;;;;1.98;1.40;;;25.40;65.40;;;;;;4951141;28;20036;-66
2023/06/15 09:56:10;;;;;;;3.30;1.42;;;25.20;64.70;;;;;;4950829;29;20043;-64
2023/06/15 09:58:36;;;;;;;3.13;1.60;;;25.50;64.10;;;;;;4946109;28;20090;-66
2023/06/15 10:01:04;;;;;;;4.20;1.55;;;25.70;64.60;;;;;;4949628;28;20596;-65
2023/06/15 10:03:34;;;;;;;3.25;1.70;;;25.60;62.50;;;;;;4928806;29;20039;-64
2023/06/15 10:06:09;;;;;;;2.60;1.30;;;25.30;62.80;;;;;;4948383;28;20468;-66
2023/06/15 10:08:39;;;;;;;2.10;1.38;;;25.50;62.90;;;;;;4929791;29;20031;-66
2023/06/15 10:11:05;;;;;;;;;;;25.70;61.50;;;;;;4929515;29;20035;-66
2023/06/15 10:13:43;;;;;;;4.68;1.30;;;25.60;61.00;;;;;;4956980;28;20013;-66
2023/06/15 10:16:12;;;;;;;2.50;1.75;;;25.70;61.50;;;;;;4933333;29;20571;-68
2023/06/15 10:18:39;;;;;;;2.63;1.48;;;25.80;62.40;;;;;;4931273;29;20395;-66
2023/06/15 10:21:11;;;;;;;2.92;1.35;;;26.10;61.70;;;;;;4949369;29;20031;-65
2023/06/15 10:23:40;;;;;;;1.90;1.13;;;26.10;61.70;;;;;;4929030;29;20070;-65
2023/06/15 10:26:08;;;;;;;3.20;1.40;;;25.70;62.20;;;;;;4948797;29;20507;-65
2023/06/15 10:28:42;;;;;;;2.53;1.33;;;25.80;61.60;;;;;;4931118;29;20035;-65
2023/06/15 10:31:22;;;;;;;3.30;1.40;;;25.70;60.60;;;;;;4935648;29;20019;-64
2023/06/15 10:34:21;;;;;;;3.10;1.42;;;26.00;61.80;;;;;;4951556;28;20039;-66
2023/06/15 10:37:05;;;;;;;3.00;1.55;;;26.30;61.60;;;;;;4932694;28;20456;-66
2023/06/15 10:39:44;;;;;;;3.10;1.60;;;26.40;61.80;;;;;;4953369;28;20047;-66
2023/06/15 10:42:13;;;;;;;2.20;1.35;;;26.70;60.70;;;;;;4946772;28;20039;-64
2023/06/15 10:44:38;;;;;;;1.52;1.20;;;26.10;60.40;;;;;;4939785;28;20130;-64
2023/06/15 10:47:19;;;;;;;1.95;1.20;;;26.40;61.50;;;;;;4947290;28;20084;-65
2023/06/15 10:49:48;;;;;;;;;;;26.80;60.50;;;;;;4962717;28;20517;-64
2023/06/15 10:52:14;;;;;;;2.83;1.27;;;27.00;59.60;;;;;;4935668;29;19918;-65
2023/06/15 10:54:40;;;;;;;4.38;1.58;;;27.00;59.50;;;;;;4952057;28;20046;-66
2023/06/15 10:57:07;;;;;;;4.60;1.23;;;27.20;59.40;;;;;;4951672;28;20031;-65
2023/06/15 10:59:53;;;;;;;1.90;1.20;;;27.30;59.40;;;;;;4934658;28;20035;-65
2023/06/15 11:02:28;;;;;;;3.45;1.50;;;26.80;59.90;;;;;;4952768;28;20028;-65
2023/06/15 11:05:00;;;;;;;2.40;1.50;;;27.10;59.30;;;;;;4956881;28;20514;-66
2023/06/15 11:07:28;;;;;;;3.38;1.75;;;27.30;59.20;;;;;;4952324;28;20450;-65
2023/06/15 11:09:57;;;;;;;1.83;1.30;;;27.10;58.30;;;;;;4926837;28;20038;-64
2023/06/15 11:12:38;;;;;;;2.85;1.13;;;26.80;58.40;;;;;;4950728;29;20508;-65
2023/06/15 11:15:06;;;;;;;2.20;1.30;;;26.80;58.00;;;;;;4953887;28;20757;-67
2023/06/15 11:17:57;;;;;;;3.47;1.85;;;27.10;58.10;;;;;;4952793;28;20043;-67
2023/06/15 11:20:42;;;;;;;2.90;1.45;;;27.80;57.30;;;;;;4951697;28;20039;-67
2023/06/15 11:23:19;;;;;;;3.28;1.48;;;27.80;56.60;;;;;;4953132;28;20039;-67
2023/06/15 11:25:54;;;;;;;2.00;1.20;;;28.00;56.40;;;;;;4930590;29;20031;-66
2023/06/15 11:28:24;;;;;;;2.05;1.25;;;27.90;56.80;;;;;;4953714;28;20027;-67
2023/06/15 11:30:53;;;;;;;2.70;1.35;;;28.50;56.50;;;;;;4940664;29;20024;-67
2023/06/15 11:33:29;;;;;;;1.90;0.95;;;28.80;55.00;;;;;;4953572;28;20035;-67
2023/06/15 11:35:56;;;;;;;1.80;0.90;;;28.50;55.70;;;;;;4943118;28;20046;-67
2023/06/15 11:38:26;;;;;;;4.20;1.58;;;28.80;54.30;;;;;;4924183;28;20043;-67
2023/06/15 11:41:12;;;;;;;1.73;1.13;;;28.80;53.50;;;;;;4936598;28;20394;-67
2023/06/15 11:43:42;;;;;;;2.58;1.35;;;28.60;54.00;;;;;;4941419;29;20078;-67
2023/06/15 11:46:13;;;;;;;2.42;1.25;;;28.40;52.60;;;;;;4952565;29;20090;-67
2023/06/15 11:48:59;;;;;;;1.40;1.10;;;28.60;53.80;;;;;;4932594;29;20499;-67
2023/06/15 11:51:25;;;;;;;2.33;1.40;;;29.20;52.50;;;;;;4952440;29;20039;-67
2023/06/15 11:53:53;;;;;;;2.08;1.25;;;29.30;51.10;;;;;;4954048;28;20037;-67
2023/06/15 11:56:19;;;;;;;2.13;1.20;;;27.90;52.10;;;;;;4953966;29;20039;-68
2023/06/15 11:58:47;;;;;;;3.72;1.30;;;27.90;52.90;;;;;;4953555;28;20039;-68
2023/06/15 12:01:14;;;;;;;1.88;1.27;;;27.70;53.10;;;;;;4953978;29;20086;-66
2023/06/15 12:03:51;;;;;;;2.53;1.50;;;28.30;52.70;;;;;;4953782;28;20031;-66
2023/06/15 12:06:19;;;;;;;2.65;1.20;;;28.20;53.20;;;;;;4933407;29;20079;-66
2023/06/15 12:08:50;;;;;;;2.83;1.48;;;29.00;53.00;;;;;;4953010;28;20031;-66
2023/06/15 12:11:19;;;;;;;2.80;1.63;;;29.60;50.80;;;;;;4937137;29;20115;-68
2023/06/15 12:13:45;;;;;;;2.47;1.40;;;29.60;51.10;;;;;;4953052;28;20035;-67
2023/06/15 12:16:11;;;;;;;2.72;1.33;;;29.70;50.40;;;;;;4953663;29;20387;-67
2023/06/15 12:18:37;;;;;;;3.08;1.40;;;30.10;49.70;;;;;;4927094;29;20032;-68
2023/06/15 12:21:03;;;;;;;2.88;1.17;;;30.00;49.80;;;;;;4949098;29;20458;-68
2023/06/15 12:23:31;;;;;;;2.92;1.27;;;30.10;49.90;;;;;;4930636;29;20039;-67
2023/06/15 12:25:59;;;;;;;2.00;1.02;;;30.40;49.00;;;;;;4953037;29;20043;-67
2023/06/15 12:28:27;;;;;;;2.97;1.30;;;29.30;48.60;;;;;;4928963;29;20038;-68
2023/06/15 12:31:00;;;;;;;3.05;0.98;;;30.00;48.50;;;;;;4932821;29;20036;-68
2023/06/15 12:33:40;;;;;;;3.00;1.40;;;29.20;49.00;;;;;;4953231;28;20087;-68
2023/06/15 12:36:14;;;;;;;1.98;1.20;;;29.60;48.80;;;;;;4932848;29;20244;-67
2023/06/15 12:38:42;;;;;;;3.53;1.27;;;29.70;48.10;;;;;;4951486;28;20035;-68
2023/06/15 12:41:13;;;;;;;3.35;1.30;;;29.70;48.60;;;;;;4952809;29;20106;-67
2023/06/15 12:43:40;;;;;;;4.00;1.33;;;29.60;48.10;;;;;;4926711;29;20131;-67
2023/06/15 12:46:06;;;;;;;2.50;1.20;;;29.50;47.80;;;;;;4931901;29;20137;-67
2023/06/15 12:48:32;;;;;;;2.33;1.13;;;29.10;47.70;;;;;;4952633;28;20390;-67
2023/06/15 12:50:59;;;;;;;2.00;1.02;;;28.00;49.00;;;;;;4932645;29;20718;-67
2023/06/15 12:53:25;;;;;;;3.70;1.17;;;27.70;49.80;;;;;;4926640;29;20384;-67